Time;durP1;ratioP1;P1;durP2;ratioP2;P2;SDS_P1;SDS_P2;PMS_P1;PMS_P2;Temp;Humidity;BMP_temperature;BMP_pressure;BME280_temperature;BME280_humidity;BME280_pressure;Samples;Min_cycle;Max_cycle;Signal;HPM_P1;HPM_P2
2022/10/27 00:01:40;;;;;;;6.28;2.10;;;;;;;;;;1741201;81;20871;-80
2022/10/27 00:04:06;;;;;;;6.42;1.80;;;;;;;;;;1741471;82;20907;-80
2022/10/27 00:06:33;;;;;;;3.27;1.80;;;;;;;;;;1714108;82;21420;-80
2022/10/27 00:08:58;;;;;;;7.55;2.02;;;;;;;;;;1741445;81;20983;-80
2022/10/27 00:11:24;;;;;;;4.53;2.27;;;;;;;;;;1741454;82;20907;-85
2022/10/27 00:13:50;;;;;;;12.63;2.35;;;;;;;;;;1741405;82;20955;-83
2022/10/27 00:16:15;;;;;;;6.10;2.30;;;;;;;;;;1741330;82;20892;-78
2022/10/27 00:18:45;;;;;;;5.35;2.20;;;;;;;;;;1741446;82;20995;-80
2022/10/27 00:21:13;;;;;;;3.70;2.15;;;;;;;;;;1741193;82;21081;-80
2022/10/27 00:23:39;;;;;;;5.33;2.80;;;;;;;;;;1741416;82;20979;-80
2022/10/27 00:26:07;;;;;;;7.28;2.40;;;;;;;;;;1741664;82;21050;-79
2022/10/27 00:28:33;;;;;;;8.58;2.50;;;;;;;;;;1741355;82;21022;-80
2022/10/27 00:31:05;;;;;;;4.37;2.10;;;;;;;;;;1741280;82;21546;-79
2022/10/27 00:33:31;;;;;;;4.67;2.30;;;;;;;;;;1741313;81;21054;-80
2022/10/27 00:36:02;;;;;;;3.02;2.12;;;;;;;;;;1741621;82;21621;-79
2022/10/27 00:38:28;;;;;;;10.08;1.90;;;;;;;;;;1738256;82;21018;-80
2022/10/27 00:40:53;;;;;;;5.20;2.17;;;;;;;;;;1741464;82;20903;-80
2022/10/27 00:43:28;;;;;;;2.87;1.80;;;;;;;;;;1740921;81;21141;-79
2022/10/27 00:45:56;;;;;;;6.83;2.40;;;;;;;;;;1743792;81;21053;-81
2022/10/27 00:48:23;;;;;;;3.98;2.20;;;;;;;;;;1743820;81;20994;-80
2022/10/27 00:50:49;;;;;;;3.40;1.82;;;;;;;;;;1743818;82;21078;-81
2022/10/27 00:53:15;;;;;;;3.87;1.75;;;;;;;;;;1743678;81;20887;-78
2022/10/27 00:55:40;;;;;;;2.08;1.50;;;;;;;;;;1743521;81;21955;-80
2022/10/27 00:58:09;;;;;;;10.25;2.15;;;;;;;;;;1743753;81;20836;-81
2022/10/27 01:00:36;;;;;;;4.15;2.20;;;;;;;;;;1743725;81;21483;-80
2022/10/27 01:03:02;;;;;;;5.62;2.50;;;;;;;;;;1743749;81;21523;-81
2022/10/27 01:05:28;;;;;;;5.72;2.67;;;;;;;;;;1724457;82;21006;-80
2022/10/27 01:07:56;;;;;;;4.85;2.47;;;;;;;;;;1743798;81;21872;-83
2022/10/27 01:10:23;;;;;;;10.30;3.02;;;;;;;;;;1743466;81;21022;-80
2022/10/27 01:12:49;;;;;;;6.05;3.22;;;;;;;;;;1743563;82;21065;-80
2022/10/27 01:15:15;;;;;;;10.78;3.50;;;;;;;;;;1743606;81;20942;-81
2022/10/27 01:17:47;;;;;;;8.25;3.33;;;;;;;;;;1743830;82;20998;-81
2022/10/27 01:20:36;;;;;;;9.00;3.97;;;;;;;;;;1743866;82;21142;-80
2022/10/27 01:23:26;;;;;;;9.20;3.80;;;;;;;;;;1743373;82;20999;-80
2022/10/27 01:26:15;;;;;;;11.60;3.95;;;;;;;;;;1740670;82;21522;-80
2022/10/27 01:29:01;;;;;;;9.50;3.95;;;;;;;;;;1743374;82;20995;-79
2022/10/27 01:31:31;;;;;;;10.43;3.52;;;;;;;;;;1743513;81;21577;-80
2022/10/27 01:34:00;;;;;;;13.13;4.60;;;;;;;;;;1743729;81;21499;-80
2022/10/27 01:36:35;;;;;;;13.18;4.78;;;;;;;;;;1743917;81;21081;-80
2022/10/27 01:39:21;;;;;;;16.82;4.75;;;;;;;;;;1741795;82;21055;-81
2022/10/27 01:41:59;;;;;;;12.20;4.95;;;;;;;;;;1743747;80;21126;-80
2022/10/27 01:44:29;;;;;;;17.48;5.58;;;;;;;;;;1684479;84;21181;-79
2022/10/27 01:46:55;;;;;;;14.33;5.22;;;;;;;;;;1681336;85;21128;-81
2022/10/27 01:49:20;;;;;;;16.55;5.40;;;;;;;;;;1684632;85;21010;-79
2022/10/27 01:51:48;;;;;;;12.40;5.40;;;;;;;;;;1684902;85;20989;-77
2022/10/27 01:54:14;;;;;;;14.23;5.25;;;;;;;;;;1684768;85;21545;-80
2022/10/27 01:57:08;;;;;;;11.38;5.22;;;;;;;;;;1684930;85;21085;-81
2022/10/27 01:59:41;;;;;;;;;;;;;;;;;;1687584;85;21562;-80
2022/10/27 02:02:19;;;;;;;13.43;5.30;;;;;;;;;;1684958;85;20241;-80
2022/10/27 02:05:05;;;;;;;12.82;5.80;;;;;;;;;;1681320;85;21681;-77
2022/10/27 02:07:49;;;;;;;13.30;4.92;;;;;;;;;;1684972;84;21022;-80
2022/10/27 02:10:24;;;;;;;12.40;5.55;;;;;;;;;;1684855;85;21062;-80
2022/10/27 02:12:50;;;;;;;13.20;5.60;;;;;;;;;;1631469;88;21258;-80
2022/10/27 02:15:34;;;;;;;12.53;5.78;;;;;;;;;;1631443;88;21062;-80
2022/10/27 02:18:04;;;;;;;14.43;5.90;;;;;;;;;;1631389;85;21042;-80
2022/10/27 02:20:33;;;;;;;14.65;5.97;;;;;;;;;;1631389;88;21528;-80
2022/10/27 02:23:01;;;;;;;12.88;5.75;;;;;;;;;;1631464;88;21252;-79
2022/10/27 02:25:29;;;;;;;12.20;5.20;;;;;;;;;;1631485;88;21375;-80
2022/10/27 02:27:57;;;;;;;13.43;5.70;;;;;;;;;;1631993;88;22936;-80
2022/10/27 02:30:23;;;;;;;13.68;4.87;;;;;;;;;;1631757;88;21133;-80
2022/10/27 02:32:49;;;;;;;11.48;5.47;;;;;;;;;;1631548;88;20876;-80
2022/10/27 02:35:16;;;;;;;10.80;5.25;;;;;;;;;;1631584;88;21082;-80
2022/10/27 02:37:44;;;;;;;10.05;5.08;;;;;;;;;;1631612;88;21139;-80
2022/10/27 02:40:10;;;;;;;10.88;4.92;;;;;;;;;;1633809;86;21094;-80
2022/10/27 02:42:35;;;;;;;14.63;5.25;;;;;;;;;;1655602;86;20920;-81
2022/10/27 02:45:01;;;;;;;15.93;5.37;;;;;;;;;;1658273;86;21649;-80
2022/10/27 02:47:27;;;;;;;16.97;5.17;;;;;;;;;;1662407;86;21697;-81
2022/10/27 02:49:53;;;;;;;14.38;5.75;;;;;;;;;;1662278;86;21018;-79
2022/10/27 02:52:18;;;;;;;10.58;4.70;;;;;;;;;;1662122;86;21597;-80
2022/10/27 02:54:47;;;;;;;13.22;5.30;;;;;;;;;;1662175;86;20915;-81
2022/10/27 02:57:18;;;;;;;9.73;4.25;;;;;;;;;;1662128;86;21037;-80
2022/10/27 02:59:44;;;;;;;7.65;4.20;;;;;;;;;;1662162;86;21547;-80
2022/10/27 03:02:10;;;;;;;8.18;4.22;;;;;;;;;;1662357;86;21109;-80
2022/10/27 03:04:36;;;;;;;8.28;4.50;;;;;;;;;;1662269;86;20968;-80
2022/10/27 03:07:02;;;;;;;10.53;4.47;;;;;;;;;;1662189;86;20900;-80
2022/10/27 03:09:28;;;;;;;9.38;4.85;;;;;;;;;;1713853;82;21034;-80
2022/10/27 03:11:53;;;;;;;7.83;4.28;;;;;;;;;;1751113;80;20943;-78
2022/10/27 03:14:19;;;;;;;8.68;4.33;;;;;;;;;;1750936;82;21135;-79
2022/10/27 03:16:44;;;;;;;11.60;4.12;;;;;;;;;;1751106;80;20963;-87
2022/10/27 03:19:10;;;;;;;10.55;4.40;;;;;;;;;;1750869;82;21604;-80
2022/10/27 03:21:36;;;;;;;13.72;4.20;;;;;;;;;;1750898;80;20851;-78
2022/10/27 03:24:02;;;;;;;11.25;4.30;;;;;;;;;;1751297;82;20872;-80
2022/10/27 03:26:27;;;;;;;10.23;4.40;;;;;;;;;;1750964;82;21301;-79
2022/10/27 03:28:53;;;;;;;10.00;4.58;;;;;;;;;;1751098;81;21426;-77
2022/10/27 03:31:19;;;;;;;11.60;4.45;;;;;;;;;;1750658;82;33401;-81
2022/10/27 03:33:45;;;;;;;14.47;4.30;;;;;;;;;;1751052;80;20800;-83
2022/10/27 03:36:11;;;;;;;10.55;4.30;;;;;;;;;;1731823;80;20938;-80
2022/10/27 03:38:37;;;;;;;12.88;4.45;;;;;;;;;;1751039;81;21093;-80
2022/10/27 03:41:03;;;;;;;11.65;5.00;;;;;;;;;;1750932;81;20995;-81
2022/10/27 03:43:28;;;;;;;13.83;4.85;;;;;;;;;;1750815;82;21447;-81
2022/10/27 03:45:54;;;;;;;12.58;5.20;;;;;;;;;;1704379;83;20941;-80
2022/10/27 03:48:20;;;;;;;11.65;4.55;;;;;;;;;;1696312;84;20961;-81
2022/10/27 03:50:46;;;;;;;12.65;5.05;;;;;;;;;;1696476;84;21150;-80
2022/10/27 03:53:12;;;;;;;15.20;5.47;;;;;;;;;;1696520;84;21573;-81
2022/10/27 03:55:38;;;;;;;16.32;5.58;;;;;;;;;;1696661;84;21013;-79
2022/10/27 03:58:03;;;;;;;12.80;5.35;;;;;;;;;;1696595;84;20953;-80
2022/10/27 04:00:32;;;;;;;10.15;5.25;;;;;;;;;;1696890;84;21004;-80
2022/10/27 04:02:58;;;;;;;14.93;5.40;;;;;;;;;;1696499;84;22803;-81
2022/10/27 04:05:24;;;;;;;23.20;5.65;;;;;;;;;;1696339;84;21058;-79
2022/10/27 04:07:50;;;;;;;11.63;5.22;;;;;;;;;;1696596;84;21642;-80
2022/10/27 04:10:16;;;;;;;13.15;5.12;;;;;;;;;;1708811;83;21652;-80
2022/10/27 04:12:48;;;;;;;15.43;5.70;;;;;;;;;;1727639;83;20931;-81
2022/10/27 04:15:14;;;;;;;12.05;5.03;;;;;;;;;;1727674;82;21074;-80
2022/10/27 04:17:40;;;;;;;16.62;4.80;;;;;;;;;;1727479;83;20956;-81
2022/10/27 04:20:06;;;;;;;11.00;4.97;;;;;;;;;;1727231;82;22324;-81
2022/10/27 04:22:32;;;;;;;14.68;5.28;;;;;;;;;;1727517;83;22170;-80
2022/10/27 04:24:57;;;;;;;10.68;4.15;;;;;;;;;;1727725;82;20888;-80
2022/10/27 04:27:23;;;;;;;11.80;4.37;;;;;;;;;;1727919;82;21030;-81
2022/10/27 04:29:49;;;;;;;11.73;4.35;;;;;;;;;;1727366;82;20837;-81
2022/10/27 04:32:15;;;;;;;7.60;3.72;;;;;;;;;;1727595;82;20872;-81
2022/10/27 04:34:40;;;;;;;7.78;3.42;;;;;;;;;;1727751;82;21038;-81
2022/10/27 04:37:06;;;;;;;11.45;3.58;;;;;;;;;;1727786;82;21657;-78
2022/10/27 04:39:32;;;;;;;8.20;3.47;;;;;;;;;;1727771;82;21007;-81
2022/10/27 04:41:57;;;;;;;7.20;3.60;;;;;;;;;;1727973;82;21641;-81
2022/10/27 04:44:23;;;;;;;6.00;3.17;;;;;;;;;;1727631;83;20920;-81
2022/10/27 04:46:48;;;;;;;6.55;3.30;;;;;;;;;;1713529;82;20990;-81
2022/10/27 04:49:14;;;;;;;9.30;3.37;;;;;;;;;;1741326;82;21020;-80
2022/10/27 04:51:40;;;;;;;6.78;3.27;;;;;;;;;;1741210;82;21620;-80
2022/10/27 04:54:05;;;;;;;4.40;2.75;;;;;;;;;;1740933;81;20975;-81
2022/10/27 04:56:31;;;;;;;5.47;2.98;;;;;;;;;;1741285;82;20804;-81
2022/10/27 04:58:56;;;;;;;10.38;3.40;;;;;;;;;;1741522;81;21608;-80
2022/10/27 05:01:22;;;;;;;8.30;3.37;;;;;;;;;;1741288;82;20906;-81
2022/10/27 05:03:49;;;;;;;9.35;2.92;;;;;;;;;;1741088;82;21014;-80
2022/10/27 05:06:15;;;;;;;6.20;2.95;;;;;;;;;;1741278;82;21031;-81
2022/10/27 05:08:41;;;;;;;7.65;3.00;;;;;;;;;;1741276;82;20976;-82
2022/10/27 05:11:07;;;;;;;7.08;2.83;;;;;;;;;;1741172;82;20947;-81
2022/10/27 05:13:32;;;;;;;6.35;2.83;;;;;;;;;;1741413;82;20880;-81
2022/10/27 05:16:01;;;;;;;4.78;2.20;;;;;;;;;;1741160;81;21937;-80
2022/10/27 05:18:27;;;;;;;7.10;2.95;;;;;;;;;;1685877;85;21099;-81
2022/10/27 05:20:53;;;;;;;3.62;2.00;;;;;;;;;;1686498;85;20917;-78
2022/10/27 05:23:19;;;;;;;5.97;2.20;;;;;;;;;;1686358;85;21645;-81
2022/10/27 05:25:46;;;;;;;8.03;2.40;;;;;;;;;;1686401;85;20928;-81
2022/10/27 05:28:12;;;;;;;13.45;2.27;;;;;;;;;;1683365;83;21079;-81
2022/10/27 05:30:38;;;;;;;6.12;1.90;;;;;;;;;;1686330;85;20935;-81
2022/10/27 05:33:03;;;;;;;5.60;2.20;;;;;;;;;;1686298;83;20912;-81
2022/10/27 05:35:29;;;;;;;5.35;2.45;;;;;;;;;;1686458;85;20896;-80
2022/10/27 05:37:55;;;;;;;6.78;2.20;;;;;;;;;;1686577;85;20857;-80
2022/10/27 05:40:21;;;;;;;5.75;2.60;;;;;;;;;;1686437;85;21954;-81
2022/10/27 05:42:54;;;;;;;3.95;2.30;;;;;;;;;;1686342;85;20857;-78
2022/10/27 05:45:21;;;;;;;3.92;2.20;;;;;;;;;;1686721;83;22794;-81
2022/10/27 05:47:48;;;;;;;6.80;2.12;;;;;;;;;;1689280;85;21081;-81
2022/10/27 05:50:14;;;;;;;9.03;2.80;;;;;;;;;;1689320;85;21019;-81
2022/10/27 05:52:40;;;;;;;6.35;2.77;;;;;;;;;;1688960;85;21036;-81
2022/10/27 05:55:06;;;;;;;5.08;2.77;;;;;;;;;;1689158;85;20868;-80
2022/10/27 05:57:31;;;;;;;9.25;4.00;;;;;;;;;;1689109;85;21012;-81
2022/10/27 05:59:57;;;;;;;7.15;3.20;;;;;;;;;;1693047;83;20932;-81
2022/10/27 06:02:23;;;;;;;8.45;3.80;;;;;;;;;;1719048;83;20943;-82
2022/10/27 06:04:48;;;;;;;6.87;3.92;;;;;;;;;;1719131;83;21885;-82
2022/10/27 06:07:14;;;;;;;9.48;3.65;;;;;;;;;;1719359;83;20934;-83
2022/10/27 06:09:40;;;;;;;8.30;3.27;;;;;;;;;;1718775;83;20986;-83
2022/10/27 06:12:06;;;;;;;4.92;2.70;;;;;;;;;;1719494;83;20900;-82
2022/10/27 06:14:31;;;;;;;6.80;3.00;;;;;;;;;;1722381;82;20885;-81
2022/10/27 06:16:58;;;;;;;4.47;2.65;;;;;;;;;;1736950;82;21372;-83
2022/10/27 06:19:24;;;;;;;7.35;2.50;;;;;;;;;;1735427;82;20965;-82
2022/10/27 06:21:50;;;;;;;5.67;2.20;;;;;;;;;;1735966;82;20818;-81
2022/10/27 06:24:15;;;;;;;6.03;2.65;;;;;;;;;;1735822;82;21425;-79
2022/10/27 06:26:41;;;;;;;5.35;2.33;;;;;;;;;;1737361;81;21037;-82
2022/10/27 06:29:06;;;;;;;4.92;2.05;;;;;;;;;;1750908;80;21917;-80
2022/10/27 06:31:32;;;;;;;6.83;2.00;;;;;;;;;;1746279;81;21024;-82
2022/10/27 06:33:58;;;;;;;3.77;1.65;;;;;;;;;;1735809;82;20892;-83
2022/10/27 06:36:24;;;;;;;4.78;1.75;;;;;;;;;;1735817;82;20916;-83
2022/10/27 06:38:49;;;;;;;1.85;1.40;;;;;;;;;;1735801;82;21057;-83
2022/10/27 06:41:15;;;;;;;5.62;1.62;;;;;;;;;;1735863;82;21261;-83
2022/10/27 06:43:41;;;;;;;2.50;1.40;;;;;;;;;;1735726;82;21566;-80
2022/10/27 06:46:06;;;;;;;1.75;1.32;;;;;;;;;;1750374;80;20911;-81
2022/10/27 06:48:32;;;;;;;5.50;1.35;;;;;;;;;;1767743;80;21545;-79
2022/10/27 06:50:58;;;;;;;2.70;1.37;;;;;;;;;;1775616;80;21705;-82
2022/10/27 06:53:24;;;;;;;4.87;1.45;;;;;;;;;;1776276;80;21079;-82
2022/10/27 06:55:50;;;;;;;1.70;1.10;;;;;;;;;;1774054;80;20876;-83
2022/10/27 06:58:15;;;;;;;4.20;1.02;;;;;;;;;;1777322;79;21680;-80
2022/10/27 07:00:41;;;;;;;2.30;1.07;;;;;;;;;;1775113;80;21070;-82
2022/10/27 07:03:08;;;;;;;4.03;1.05;;;;;;;;;;1774552;80;20959;-80
2022/10/27 07:05:34;;;;;;;1.00;0.72;;;;;;;;;;1768901;80;21104;-81
2022/10/27 07:08:00;;;;;;;2.08;1.02;;;;;;;;;;1771829;80;21066;-82
2022/10/27 07:10:26;;;;;;;3.27;1.05;;;;;;;;;;1755315;80;21098;-79
2022/10/27 07:12:56;;;;;;;2.60;1.00;;;;;;;;;;1775897;80;20892;-77
2022/10/27 07:15:23;;;;;;;7.53;1.25;;;;;;;;;;1780292;80;21038;-80
2022/10/27 07:17:54;;;;;;;5.60;1.10;;;;;;;;;;1779989;79;20994;-82
2022/10/27 07:20:20;;;;;;;3.83;1.27;;;;;;;;;;1767364;80;21086;-81
2022/10/27 07:22:46;;;;;;;1.30;0.80;;;;;;;;;;1771850;80;20904;-81
2022/10/27 07:25:11;;;;;;;2.33;0.98;;;;;;;;;;1773456;80;20880;-82
2022/10/27 07:27:37;;;;;;;3.47;0.82;;;;;;;;;;1757439;80;20900;-81
2022/10/27 07:30:03;;;;;;;2.77;1.00;;;;;;;;;;1748002;80;21201;-81
2022/10/27 07:32:29;;;;;;;1.02;0.70;;;;;;;;;;1771576;80;21043;-81
2022/10/27 07:34:55;;;;;;;3.35;1.00;;;;;;;;;;1770498;80;20908;-81
2022/10/27 07:37:20;;;;;;;1.42;1.00;;;;;;;;;;1769426;80;21633;-81
2022/10/27 07:39:46;;;;;;;0.45;0.40;;;;;;;;;;1766921;79;20908;-81
2022/10/27 07:42:14;;;;;;;1.30;0.80;;;;;;;;;;1738923;80;21098;-80
2022/10/27 07:44:40;;;;;;;1.57;0.80;;;;;;;;;;1734269;81;21300;-80
2022/10/27 07:47:06;;;;;;;8.43;1.10;;;;;;;;;;1710387;81;21599;-82
2022/10/27 07:49:32;;;;;;;0.93;0.70;;;;;;;;;;1705485;83;20857;-81
2022/10/27 07:52:00;;;;;;;0.95;0.70;;;;;;;;;;1676025;84;20984;-80
2022/10/27 07:54:25;;;;;;;4.25;0.80;;;;;;;;;;1703874;83;21185;-80
2022/10/27 07:56:51;;;;;;;0.95;0.60;;;;;;;;;;1710231;83;20843;-81
2022/10/27 07:59:17;;;;;;;1.98;1.02;;;;;;;;;;1720508;83;21042;-86
2022/10/27 08:01:43;;;;;;;1.37;0.93;;;;;;;;;;1713426;81;21646;-79
2022/10/27 08:04:08;;;;;;;2.77;0.82;;;;;;;;;;1694079;83;20911;-80
2022/10/27 08:06:34;;;;;;;0.85;0.60;;;;;;;;;;1705679;83;21618;-79
2022/10/27 08:09:00;;;;;;;1.02;0.80;;;;;;;;;;1711704;83;20890;-83
2022/10/27 08:11:25;;;;;;;2.50;0.55;;;;;;;;;;1708422;83;20977;-81
2022/10/27 08:13:52;;;;;;;0.98;0.40;;;;;;;;;;1703458;83;20839;-78
2022/10/27 08:16:19;;;;;;;0.90;0.50;;;;;;;;;;1703847;83;21060;-81
2022/10/27 08:18:45;;;;;;;3.20;0.57;;;;;;;;;;1706396;83;21638;-82
2022/10/27 08:21:11;;;;;;;2.30;0.57;;;;;;;;;;1707388;83;22279;-80
2022/10/27 08:23:38;;;;;;;3.50;0.82;;;;;;;;;;1712573;83;20877;-80
2022/10/27 08:26:04;;;;;;;4.47;0.60;;;;;;;;;;1704146;83;21048;-82
2022/10/27 08:28:29;;;;;;;1.65;0.60;;;;;;;;;;1711970;83;20905;-81
2022/10/27 08:30:56;;;;;;;0.88;0.70;;;;;;;;;;1688714;83;21930;-79
2022/10/27 08:33:22;;;;;;;4.33;0.60;;;;;;;;;;1679155;85;21064;-78
2022/10/27 08:35:49;;;;;;;6.12;0.80;;;;;;;;;;1708447;81;20993;-78
2022/10/27 08:38:15;;;;;;;1.82;0.88;;;;;;;;;;1702965;83;21053;-83
2022/10/27 08:40:44;;;;;;;3.05;0.98;;;;;;;;;;1696249;81;21015;-81
2022/10/27 08:43:35;;;;;;;0.80;0.68;;;;;;;;;;1740321;81;21152;-80
2022/10/27 08:46:07;;;;;;;1.50;0.50;;;;;;;;;;1753663;80;21015;-78
2022/10/27 08:48:33;;;;;;;1.65;0.47;;;;;;;;;;1753641;80;21090;-81
2022/10/27 08:50:59;;;;;;;1.00;0.70;;;;;;;;;;1757767;80;21598;-82
2022/10/27 08:53:31;;;;;;;1.52;0.60;;;;;;;;;;1771727;80;21092;-79
2022/10/27 08:56:11;;;;;;;2.67;0.60;;;;;;;;;;1769558;80;21407;-82
2022/10/27 08:58:39;;;;;;;2.00;1.00;;;;;;;;;;1775713;80;21499;-81
2022/10/27 09:01:17;;;;;;;2.20;0.80;;;;;;;;;;1762097;80;21130;-80
2022/10/27 09:03:59;;;;;;;1.70;0.60;;;;;;;;;;1763985;80;21075;-80
2022/10/27 09:06:52;;;;;;;3.80;0.90;;;;;;;;;;1767844;80;21058;-81
2022/10/27 09:09:47;;;;;;;1.37;0.93;;;;;;;;;;1763791;80;22689;-80
2022/10/27 09:12:16;;;;;;;1.42;1.00;;;;;;;;;;1767735;80;21031;-78
2022/10/27 09:14:57;;;;;;;2.95;0.93;;;;;;;;;;1767564;80;21109;-81
2022/10/27 09:17:29;;;;;;;2.33;0.80;;;;;;;;;;1769088;80;21019;-78
2022/10/27 09:20:00;;;;;;;1.45;0.80;;;;;;;;;;1773759;80;21039;-77
2022/10/27 09:22:27;;;;;;;1.92;0.70;;;;;;;;;;1751445;81;21143;-79
2022/10/27 09:24:56;;;;;;;3.92;0.90;;;;;;;;;;1739494;81;20977;-80
2022/10/27 09:27:22;;;;;;;5.53;1.67;;;;;;;;;;1678719;85;21130;-79
2022/10/27 09:29:50;;;;;;;1.20;0.70;;;;;;;;;;1675651;85;21630;-82
2022/10/27 09:32:24;;;;;;;2.40;0.93;;;;;;;;;;1675623;85;21650;-79
2022/10/27 09:35:00;;;;;;;2.08;0.95;;;;;;;;;;1658173;85;21271;-79
2022/10/27 09:37:27;;;;;;;3.02;0.80;;;;;;;;;;1660797;85;21564;-81
2022/10/27 09:39:53;;;;;;;1.20;0.57;;;;;;;;;;1675597;85;21062;-80
2022/10/27 09:42:19;;;;;;;1.40;0.90;;;;;;;;;;1674160;83;22023;-82
2022/10/27 09:44:57;;;;;;;3.10;0.90;;;;;;;;;;1703261;83;21551;-81
2022/10/27 09:47:24;;;;;;;2.85;1.10;;;;;;;;;;1699756;83;21477;-82
2022/10/27 09:49:52;;;;;;;1.40;0.75;;;;;;;;;;1689525;84;21120;-77
2022/10/27 09:52:21;;;;;;;1.50;0.80;;;;;;;;;;1655483;85;21120;-79
2022/10/27 09:54:52;;;;;;;4.00;0.80;;;;;;;;;;1678510;85;21073;-79
2022/10/27 09:57:19;;;;;;;3.83;1.30;;;;;;;;;;1633075;87;21106;-80
2022/10/27 10:00:10;;;;;;;1.75;1.00;;;;;;;;;;1608391;88;21123;-78
2022/10/27 10:02:40;;;;;;;1.45;0.82;;;;;;;;;;1638197;86;21162;-81
2022/10/27 10:05:21;;;;;;;1.40;0.90;;;;;;;;;;1659937;86;21035;-78
2022/10/27 10:07:47;;;;;;;4.45;1.40;;;;;;;;;;1605750;89;21070;-80
2022/10/27 10:10:30;;;;;;;1.45;1.02;;;;;;;;;;1599521;89;20972;-78
2022/10/27 10:13:09;;;;;;;2.07;1.33;;;;;;;;;;1579300;90;21219;-79
2022/10/27 10:15:43;;;;;;;5.85;1.72;;;;;;;;;;1579266;90;21094;-80
2022/10/27 10:18:26;;;;;;;3.90;1.65;;;;;;;;;;1579370;90;21057;-79
2022/10/27 10:21:01;;;;;;;3.90;1.80;;;;;;;;;;1581868;89;21143;-79
2022/10/27 10:23:30;;;;;;;4.37;1.90;;;;;;;;;;1541000;89;21078;-77
2022/10/27 10:25:58;;;;;;;3.85;1.62;;;;;;;;;;1575031;89;22042;-84
2022/10/27 10:28:41;;;;;;;3.83;1.60;;;;;;;;;;1586906;89;21111;-77
2022/10/27 10:31:10;;;;;;;5.10;1.80;;;;;;;;;;1600494;88;26631;-78
2022/10/27 10:33:40;;;;;;;7.33;2.40;;;;;;;;;;1588845;88;21135;-79
2022/10/27 10:36:16;;;;;;;6.15;2.22;;;;;;;;;;1572695;90;21121;-80
2022/10/27 10:38:49;;;;;;;7.60;2.70;;;;;;;;;;1543017;92;21072;-79
2022/10/27 10:41:16;;;;;;;5.03;2.40;;;;;;;;;;1494429;95;21058;-79
2022/10/27 10:43:42;;;;;;;5.42;2.35;;;;;;;;;;1494972;95;21153;-79
2022/10/27 10:46:24;;;;;;;6.85;2.70;;;;;;;;;;1487982;95;21069;-81
2022/10/27 10:48:52;;;;;;;5.87;2.72;;;;;;;;;;1484241;93;21614;-79
2022/10/27 10:51:27;;;;;;;7.85;3.12;;;;;;;;;;1497090;95;21139;-82
2022/10/27 10:54:08;;;;;;;7.05;2.92;;;;;;;;;;1462730;97;21162;-80
2022/10/27 10:56:37;;;;;;;7.80;3.25;;;;;;;;;;1476941;97;21166;-82
2022/10/27 10:59:12;;;;;;;6.10;3.02;;;;;;;;;;1474768;97;21121;-79
2022/10/27 11:01:56;;;;;;;4.78;3.17;;;;;;;;;;1466072;97;21101;-80
2022/10/27 11:04:24;;;;;;;9.70;3.35;;;;;;;;;;1491228;94;21182;-79
2022/10/27 11:06:57;;;;;;;8.03;3.17;;;;;;;;;;1515830;94;21059;-79
2022/10/27 11:09:26;;;;;;;7.80;3.57;;;;;;;;;;1516780;94;21109;-79
2022/10/27 11:11:52;;;;;;;7.45;3.37;;;;;;;;;;1516471;94;21551;-79
2022/10/27 11:14:18;;;;;;;9.13;3.98;;;;;;;;;;1515845;93;21695;-81
2022/10/27 11:16:50;;;;;;;9.58;3.58;;;;;;;;;;1515866;94;22038;-81
2022/10/27 11:19:18;;;;;;;6.72;3.50;;;;;;;;;;1512316;93;21109;-80
2022/10/27 11:21:59;;;;;;;8.60;3.83;;;;;;;;;;1532517;93;21640;-84
2022/10/27 11:24:30;;;;;;;9.20;3.10;;;;;;;;;;1533172;93;21094;-82
2022/10/27 11:27:12;;;;;;;9.48;3.40;;;;;;;;;;1532752;93;21204;-79
2022/10/27 11:29:59;;;;;;;9.28;4.00;;;;;;;;;;1516936;93;22194;-80
2022/10/27 11:32:40;;;;;;;8.55;3.75;;;;;;;;;;1532538;93;21094;-81
2022/10/27 11:35:43;;;;;;;11.80;3.87;;;;;;;;;;1576998;87;21619;-80
2022/10/27 11:38:28;;;;;;;6.92;3.50;;;;;;;;;;1669507;83;21094;-78
2022/10/27 11:41:02;;;;;;;9.70;3.92;;;;;;;;;;1699085;82;21601;-79
2022/10/27 11:43:48;;;;;;;7.17;3.40;;;;;;;;;;1701095;83;21106;-78
2022/10/27 11:46:21;;;;;;;7.55;3.70;;;;;;;;;;1707117;83;22005;-79
2022/10/27 11:48:52;;;;;;;10.65;3.50;;;;;;;;;;1606976;88;21132;-81
2022/10/27 11:51:25;;;;;;;7.42;3.85;;;;;;;;;;1592219;89;21155;-78
2022/10/27 11:53:51;;;;;;;8.93;3.87;;;;;;;;;;1591412;89;21133;-76
2022/10/27 11:56:32;;;;;;;7.90;3.50;;;;;;;;;;1591145;88;21139;-80
2022/10/27 11:59:10;;;;;;;7.58;4.05;;;;;;;;;;1588936;90;21055;-79
2022/10/27 12:01:49;;;;;;;7.87;3.70;;;;;;;;;;1589705;90;21621;-80
2022/10/27 12:04:33;;;;;;;7.95;3.70;;;;;;;;;;1590602;88;21178;-80
2022/10/27 12:07:02;;;;;;;9.65;3.58;;;;;;;;;;1590002;90;21102;-80
2022/10/27 12:09:38;;;;;;;8.73;3.90;;;;;;;;;;1573891;91;21180;-80
2022/10/27 12:12:08;;;;;;;6.55;3.10;;;;;;;;;;1561340;91;21092;-81
2022/10/27 12:14:38;;;;;;;6.55;3.37;;;;;;;;;;1574149;91;21122;-81
2022/10/27 12:17:25;;;;;;;6.97;3.52;;;;;;;;;;1571319;91;21058;-80
2022/10/27 12:19:54;;;;;;;5.97;3.17;;;;;;;;;;1573743;91;21558;-81
2022/10/27 12:22:40;;;;;;;7.78;3.45;;;;;;;;;;1574307;89;21252;-82
2022/10/27 12:25:22;;;;;;;6.22;3.20;;;;;;;;;;1570498;91;21363;-81
2022/10/27 12:27:50;;;;;;;8.95;2.95;;;;;;;;;;1574289;89;21141;-81
2022/10/27 12:30:19;;;;;;;4.78;2.80;;;;;;;;;;1573369;91;21129;-81
2022/10/27 12:33:00;;;;;;;7.08;3.30;;;;;;;;;;1573115;91;21125;-81
2022/10/27 12:35:46;;;;;;;6.87;3.65;;;;;;;;;;1573538;89;21302;-81
2022/10/27 12:38:24;;;;;;;7.97;3.62;;;;;;;;;;1564075;90;21038;-80
2022/10/27 12:41:05;;;;;;;7.30;3.55;;;;;;;;;;1535885;93;21096;-81
2022/10/27 12:43:35;;;;;;;5.47;3.00;;;;;;;;;;1521060;93;21401;-80
2022/10/27 12:46:13;;;;;;;5.65;3.40;;;;;;;;;;1593239;85;21094;-81
2022/10/27 12:48:48;;;;;;;16.60;4.78;;;;;;;;;;1673814;84;21587;-80
2022/10/27 12:51:41;;;;;;;10.78;3.83;;;;;;;;;;1673517;84;21095;-81
2022/10/27 12:54:42;;;;;;;10.07;4.10;;;;;;;;;;1690713;84;21115;-82
2022/10/27 12:57:24;;;;;;;12.47;4.15;;;;;;;;;;1692211;83;21062;-83
2022/10/27 13:00:11;;;;;;;7.53;3.60;;;;;;;;;;1691473;84;21203;-82
2022/10/27 13:02:44;;;;;;;7.03;3.58;;;;;;;;;;1708094;83;21217;-81
2022/10/27 13:05:33;;;;;;;9.70;4.50;;;;;;;;;;1672858;85;21135;-82
2022/10/27 13:08:29;;;;;;;8.80;4.10;;;;;;;;;;1658943;85;21625;-82
2022/10/27 13:11:02;;;;;;;9.70;3.52;;;;;;;;;;1641472;86;21132;-78
2022/10/27 13:13:46;;;;;;;10.00;4.12;;;;;;;;;;1637348;87;21097;-82
2022/10/27 13:16:27;;;;;;;11.18;4.55;;;;;;;;;;1629325;86;21134;-78
2022/10/27 13:19:00;;;;;;;7.95;3.65;;;;;;;;;;1658439;86;21130;-79
2022/10/27 13:21:50;;;;;;;11.63;4.70;;;;;;;;;;1585297;89;21208;-81
2022/10/27 13:24:22;;;;;;;10.13;4.15;;;;;;;;;;1575009;90;21553;-81
2022/10/27 13:26:59;;;;;;;9.53;3.75;;;;;;;;;;1574428;90;21469;-82
2022/10/27 13:29:34;;;;;;;11.18;4.35;;;;;;;;;;1588162;88;21384;-83
2022/10/27 13:32:22;;;;;;;9.98;3.90;;;;;;;;;;1602219;88;21593;-82
2022/10/27 13:35:04;;;;;;;9.70;3.77;;;;;;;;;;1597763;88;21576;-82
2022/10/27 13:37:43;;;;;;;9.78;4.05;;;;;;;;;;1608459;88;21479;-83
2022/10/27 13:40:22;;;;;;;9.65;4.05;;;;;;;;;;1618410;87;21483;-83
2022/10/27 13:42:49;;;;;;;10.40;3.35;;;;;;;;;;1654495;84;21172;-83
2022/10/27 13:45:31;;;;;;;5.92;3.50;;;;;;;;;;1678070;83;21134;-82
2022/10/27 13:48:09;;;;;;;7.30;3.30;;;;;;;;;;1674636;84;21493;-82
2022/10/27 13:50:47;;;;;;;6.72;3.33;;;;;;;;;;1603062;87;21080;-82
2022/10/27 13:53:21;;;;;;;9.20;3.10;;;;;;;;;;1615566;87;21038;-81
2022/10/27 13:56:02;;;;;;;9.40;3.37;;;;;;;;;;1594846;87;21099;-84
2022/10/27 13:58:50;;;;;;;6.05;2.95;;;;;;;;;;1614051;88;21037;-82
2022/10/27 14:01:33;;;;;;;5.67;2.90;;;;;;;;;;1613846;88;21875;-82
2022/10/27 14:04:11;;;;;;;6.47;2.90;;;;;;;;;;1613624;88;21030;-83
2022/10/27 14:06:39;;;;;;;8.35;3.05;;;;;;;;;;1601205;88;21138;-82
2022/10/27 14:09:34;;;;;;;8.88;3.05;;;;;;;;;;1588459;90;21218;-83
2022/10/27 14:12:17;;;;;;;7.67;3.08;;;;;;;;;;1588554;89;21081;-83
2022/10/27 14:14:43;;;;;;;;;;;;;;;;;;1591080;90;20986;-80
2022/10/27 14:17:19;;;;;;;9.00;4.42;;;;;;;;;;1587738;90;20145;-82
2022/10/27 14:20:04;;;;;;;7.17;2.95;;;;;;;;;;1588500;89;21084;-83
2022/10/27 14:22:36;;;;;;;6.97;3.00;;;;;;;;;;1497816;95;21136;-82
2022/10/27 14:25:15;;;;;;;15.03;3.87;;;;;;;;;;1497554;95;21126;-84
2022/10/27 14:27:41;;;;;;;6.72;3.33;;;;;;;;;;1543106;89;21060;-83
2022/10/27 14:30:19;;;;;;;5.78;3.12;;;;;;;;;;1596179;89;21615;-82
2022/10/27 14:32:45;;;;;;;6.33;3.05;;;;;;;;;;1596292;89;21059;-83
2022/10/27 14:35:24;;;;;;;6.95;3.10;;;;;;;;;;1579425;89;21000;-83
2022/10/27 14:37:55;;;;;;;8.48;3.17;;;;;;;;;;1605213;88;21538;-81
2022/10/27 14:40:20;;;;;;;9.73;3.30;;;;;;;;;;1603130;88;21053;-80
2022/10/27 14:42:46;;;;;;;8.23;3.40;;;;;;;;;;1584488;89;21514;-84
2022/10/27 14:45:18;;;;;;;6.30;3.05;;;;;;;;;;1580335;90;21642;-82
2022/10/27 14:48:02;;;;;;;9.15;3.70;;;;;;;;;;1576888;90;21758;-85
2022/10/27 14:50:36;;;;;;;8.30;3.50;;;;;;;;;;1576642;90;20979;-80
2022/10/27 14:53:02;;;;;;;8.88;3.45;;;;;;;;;;1583898;90;21224;-82
2022/10/27 14:55:36;;;;;;;7.45;3.50;;;;;;;;;;1587453;90;21452;-81
2022/10/27 14:58:04;;;;;;;9.35;3.70;;;;;;;;;;1740893;80;21106;-81
2022/10/27 15:00:35;;;;;;;9.88;3.85;;;;;;;;;;1758410;80;21145;-81
2022/10/27 15:03:03;;;;;;;7.65;3.60;;;;;;;;;;1757062;80;21034;-81